Portland, New York
Current Conditions -  °F | °C
As of 1:53 PM on Monday 20 Oct 2014 (Local Time) from KDKK Reporting Station
Broken Clouds Broken Clouds  
Wind Chill: 56°   Ceiling: 10000
Heat Index: 56°   Visibility: 10mi
Dew Point: 41°   Wind: 12mph
Humidity: 57%   Direction: 220°SW
Pressure: 29.85"   Gusts: NA
Location:  42.38°N, 79.47°W
Report Text: KDKK 201753Z AUTO 22010KT 10SM BKN100 13/05 A2985 RMK AO2 SLP109 60000 T01330050 10139 20078 58021
Loading
Personal Weather Stations






























Interactive Weather Map New forecast layout! Learn more

10-Day Weather Forecast

Advertisements
Track Severe Weather on mobile